Aeroporto :
LOGIN :

Iscrizione | Disclaimer

   EN    FR    IT 

 










Sommario :    VFR   VFR Marginale   IFR   IFR Intensivo   IFR Molto Intensivo
Visibilità : 
Base nubi : 
>= 8 km
>= 3000ft
5 / 8 km
1000 / 3000 ft
1500m / 5 km
500 / 1000 ft
800 / 1500m
200 / 500 ft
< 800m
< 200 ft
Simboli :   Temporali  Nebbia  Neve Forte  Precipitazioni Forti  Vento > 20 kt
SIGMETs :   Varie  Temporali  Ghiacco  Turbolenza  Onda orograficha  Ceneri Vulcaniche







- Altitudine del aeroporto : 446 ft
- Codice IATA : VNE
- Carte del aeroporto


LFRV - Vannes-Meucon

ULTIMO METAR :
  • 200330Z AUTO 23005KT 190V270 9999 BKN008 BKN019 OVC026 18/18 Q1010

METARs OBSOLETI :
  • 200300Z AUTO 23007KT 200V270 9999 -RADZ BKN006 OVC010 18/18 Q1011
  • 200230Z AUTO 22005KT 190V260 9999 OVC006 18/17 Q1011
  • 200200Z AUTO 21006KT 180V240 9999 OVC007 18/17 Q1011
  • 200130Z AUTO 21006KT 180V240 9999 OVC009 18/17 Q1011
  • 200100Z AUTO 21006KT 170V230 9999 BKN010 OVC015 18/17 Q1011

TAF N/A
Nessun NOTAM noto per questo aeroporto.
1 SIGMET conosciuto per la FIR Brest (LFRR) :
 
Temporali affogati
LFRR SIGMET 1 VALID 200100/200400 LFPW
LFRR BREST FIR/UIR EMBD TS OBS AT 0100Z WI N4600 W00145 - N4515 W00145 - N4500 W00230 - N4530 W00230 - N4600 W00145 TOP FL390 MOV E 20KT NC=



MetMap, La meteo Aeronautica in un colpo d'occhio ! - Copyright ORBIFLY Dicembre 2007 - Disclaimer

ORBIFLY MET'MAP TEAM :

Programmazione e sviluppo : Alexandra Zaïnal
Concezione e sviluppo : Baudouin d'Aumeries
Co-Programmazione e sviluppo : Marc-Olivier Méhu
Supporto tecnico e logistico : Manuel Goepfert
Aiuto per la traduzione : Arnaldo La Scala

Contatto : metmap@orbifly.com




FONTI E CREDITI :

   NOAA